createdAt,value
2018-11-07T00:01:45.577Z,15.84
2018-11-07T00:07:14.046Z,15.66
2018-11-07T00:09:49.527Z,15.65
2018-11-07T00:12:25.591Z,15.66
2018-11-07T00:15:01.708Z,15.67
2018-11-07T00:17:37.498Z,15.62
2018-11-07T00:20:13.026Z,15.60
2018-11-07T00:22:48.046Z,15.57
2018-11-07T00:25:23.353Z,15.57
2018-11-07T00:27:57.997Z,15.56
2018-11-07T00:30:32.705Z,15.57
2018-11-07T00:35:59.305Z,15.58
2018-11-07T00:38:34.994Z,15.49
2018-11-07T00:41:11.580Z,15.50
2018-11-07T00:43:48.530Z,15.54
2018-11-07T00:49:18.419Z,15.43
2018-11-07T00:51:53.444Z,15.44
2018-11-07T00:54:28.414Z,15.39
2018-11-07T00:57:03.554Z,15.43
2018-11-07T00:59:38.794Z,15.37
2018-11-07T01:02:16.643Z,15.37
2018-11-07T01:04:51.334Z,15.38
2018-11-07T01:07:27.872Z,15.40
2018-11-07T01:10:02.606Z,15.37
2018-11-07T01:12:39.062Z,15.37
2018-11-07T01:15:14.686Z,15.38
2018-11-07T01:17:50.360Z,15.29
2018-11-07T01:20:25.238Z,15.31
2018-11-07T01:23:00.133Z,15.24
2018-11-07T01:25:35.745Z,15.32
2018-11-07T01:28:10.772Z,15.41
2018-11-07T01:30:46.388Z,15.43
2018-11-07T01:33:21.813Z,15.39
2018-11-07T01:35:56.677Z,15.31
2018-11-07T01:38:31.924Z,15.25
2018-11-07T01:41:08.053Z,15.20
2018-11-07T01:43:43.461Z,15.25
2018-11-07T01:49:02.570Z,15.24
2018-11-07T01:51:38.987Z,15.18
2018-11-07T01:54:13.487Z,15.22
2018-11-07T01:56:49.228Z,15.09
2018-11-07T01:59:24.671Z,15.09
2018-11-07T02:02:00.723Z,15.00
2018-11-07T02:04:35.898Z,14.96
2018-11-07T02:07:11.007Z,14.88
2018-11-07T02:09:46.103Z,14.90
2018-11-07T02:12:22.929Z,14.81
2018-11-07T02:14:57.929Z,14.76
2018-11-07T02:17:33.567Z,14.73
2018-11-07T02:20:09.866Z,14.70
2018-11-07T02:22:47.281Z,14.67
2018-11-07T02:25:22.417Z,14.63
2018-11-07T02:27:58.259Z,14.61
2018-11-07T02:30:32.526Z,14.57
2018-11-07T02:33:07.523Z,14.57
2018-11-07T02:35:42.706Z,14.64
2018-11-07T02:38:18.291Z,14.71
2018-11-07T02:40:52.624Z,14.80
2018-11-07T02:43:28.151Z,14.77
2018-11-07T02:46:02.535Z,14.74
2018-11-07T02:48:38.332Z,14.70
2018-11-07T02:51:13.154Z,14.71
2018-11-07T02:53:47.881Z,14.76
2018-11-07T02:56:22.763Z,14.71
2018-11-07T02:58:57.610Z,14.79
2018-11-07T03:01:31.996Z,14.79
2018-11-07T03:04:07.236Z,14.76
2018-11-07T03:06:43.075Z,14.78
2018-11-07T03:09:17.784Z,14.72
2018-11-07T03:11:52.713Z,14.78
2018-11-07T03:14:28.615Z,14.82
2018-11-07T03:17:04.807Z,14.88
2018-11-07T03:19:39.960Z,14.89
2018-11-07T03:22:14.759Z,14.82
2018-11-07T03:24:49.398Z,14.87
2018-11-07T03:27:25.414Z,14.83
2018-11-07T03:30:00.843Z,14.90
2018-11-07T03:32:36.387Z,14.86
2018-11-07T03:38:18.360Z,14.92
2018-11-07T03:40:53.715Z,14.91
2018-11-07T03:43:28.565Z,14.88
2018-11-07T03:46:03.032Z,14.83
2018-11-07T03:48:37.434Z,14.87
2018-11-07T03:51:11.733Z,14.84
2018-11-07T03:53:47.278Z,14.90
2018-11-07T03:56:22.136Z,14.85
2018-11-07T03:58:56.832Z,14.79
2018-11-07T04:01:32.415Z,14.78
2018-11-07T04:04:07.605Z,14.77
2018-11-07T04:06:43.072Z,14.78
2018-11-07T04:09:18.439Z,14.66
2018-11-07T04:11:53.620Z,14.70
2018-11-07T04:14:29.119Z,14.73
2018-11-07T04:17:04.136Z,14.76
2018-11-07T04:19:39.501Z,14.78
2018-11-07T04:22:14.199Z,14.72
2018-11-07T04:24:48.687Z,14.77
2018-11-07T04:27:23.999Z,14.70
2018-11-07T04:29:59.437Z,14.71
2018-11-07T04:32:34.227Z,14.69
2018-11-07T04:35:10.411Z,14.64
2018-11-07T04:37:45.424Z,14.68
2018-11-07T04:40:20.419Z,14.62
2018-11-07T04:42:55.248Z,14.63
2018-11-07T04:45:31.345Z,14.64
2018-11-07T04:48:06.998Z,14.56
2018-11-07T04:50:42.457Z,14.53
2018-11-07T04:53:17.954Z,14.47
2018-11-07T04:55:52.637Z,14.46
2018-11-07T04:58:27.589Z,14.43
2018-11-07T05:01:02.217Z,14.40
2018-11-07T05:03:38.248Z,14.33
2018-11-07T05:08:55.538Z,14.31
2018-11-07T05:11:31.559Z,14.34
2018-11-07T05:14:06.696Z,14.30
2018-11-07T05:16:42.397Z,14.28
2018-11-07T05:19:16.744Z,14.28
2018-11-07T05:21:51.036Z,14.21
2018-11-07T05:24:26.626Z,14.12
2018-11-07T05:27:02.120Z,14.16
2018-11-07T05:29:37.039Z,14.11
2018-11-07T05:32:12.066Z,14.07
2018-11-07T05:34:47.606Z,14.06
2018-11-07T05:37:22.527Z,14.05
2018-11-07T05:39:57.841Z,13.96
2018-11-07T05:42:32.559Z,14.05
2018-11-07T05:45:08.569Z,13.99
2018-11-07T05:47:44.052Z,13.92
2018-11-07T05:50:19.940Z,13.93
2018-11-07T05:52:55.462Z,13.92
2018-11-07T05:55:30.603Z,13.88
2018-11-07T05:58:05.923Z,13.83
2018-11-07T06:00:41.951Z,13.83
2018-11-07T06:03:16.848Z,13.85
2018-11-07T06:05:51.907Z,13.87
2018-11-07T06:08:27.535Z,13.88
2018-11-07T06:11:03.562Z,13.85
2018-11-07T06:13:38.886Z,13.91
2018-11-07T06:16:13.940Z,13.91
2018-11-07T06:18:49.835Z,13.84
2018-11-07T06:21:24.358Z,13.86
2018-11-07T06:24:00.180Z,13.83
2018-11-07T06:26:35.901Z,13.81
2018-11-07T06:29:10.958Z,13.79
2018-11-07T06:31:46.418Z,13.80
2018-11-07T06:34:21.417Z,13.78
2018-11-07T06:39:56.472Z,13.83
2018-11-07T06:42:32.789Z,13.86
2018-11-07T06:47:49.935Z,13.96
2018-11-07T06:50:24.425Z,14.08
2018-11-07T06:53:00.371Z,14.04
2018-11-07T06:55:36.107Z,14.07
2018-11-07T07:00:53.274Z,14.23
2018-11-07T07:03:27.955Z,14.23
2018-11-07T07:06:03.588Z,14.21
2018-11-07T07:08:38.494Z,14.41
2018-11-07T07:11:13.343Z,14.41
2018-11-07T07:13:47.899Z,14.43
2018-11-07T07:16:24.111Z,14.46
2018-11-07T07:19:00.647Z,14.51
2018-11-07T07:21:36.089Z,14.55
2018-11-07T07:24:10.941Z,14.58
2018-11-07T07:26:45.623Z,14.67
2018-11-07T07:29:20.815Z,14.73
2018-11-07T07:31:57.803Z,14.85
2018-11-07T07:34:34.024Z,14.94
2018-11-07T07:39:56.601Z,15.28
2018-11-07T07:42:31.437Z,15.38
2018-11-07T07:45:06.610Z,15.56
2018-11-07T07:47:42.876Z,15.78
2018-11-07T07:50:19.962Z,15.92
2018-11-07T07:52:55.468Z,16.11
2018-11-07T07:55:30.951Z,16.55
2018-11-07T07:58:06.436Z,17.15
2018-11-07T08:00:41.367Z,17.65
2018-11-07T08:03:16.467Z,18.24
2018-11-07T08:05:51.908Z,18.77
2018-11-07T08:08:27.023Z,19.06
2018-11-07T08:11:02.361Z,19.58
2018-11-07T08:13:37.193Z,19.83
2018-11-07T08:16:12.522Z,20.62
2018-11-07T08:18:47.212Z,20.65
2018-11-07T08:21:21.503Z,21.23
2018-11-07T08:23:56.170Z,21.46
2018-11-07T08:29:42.719Z,22.59
2018-11-07T08:32:17.455Z,22.99
2018-11-07T08:38:06.525Z,23.78
2018-11-07T08:40:41.929Z,23.81
2018-11-07T08:43:16.872Z,24.20
2018-11-07T08:49:11.190Z,24.79
2018-11-07T08:51:47.051Z,25.23
2018-11-07T08:54:23.714Z,26.34
2018-11-07T08:56:59.945Z,25.98
2018-11-07T09:02:20.058Z,26.53
2018-11-07T09:04:56.157Z,26.84
2018-11-07T09:07:30.885Z,27.41
2018-11-07T09:10:05.569Z,28.14
2018-11-07T09:12:42.234Z,27.80
2018-11-07T09:15:19.555Z,27.57
2018-11-07T09:17:54.171Z,27.73
2018-11-07T09:20:29.153Z,28.38
2018-11-07T09:23:03.732Z,28.66
2018-11-07T09:25:38.651Z,28.79
2018-11-07T09:28:14.135Z,28.68
2018-11-07T09:30:49.164Z,27.72
2018-11-07T09:41:53.103Z,27.68
2018-11-07T09:44:29.588Z,28.28
2018-11-07T09:47:04.156Z,28.56
2018-11-07T09:49:41.010Z,29.10
2018-11-07T09:52:16.118Z,29.27
2018-11-07T09:54:51.093Z,28.87
2018-11-07T09:57:27.423Z,29.74
2018-11-07T10:00:02.646Z,29.91
2018-11-07T10:02:37.366Z,29.34
2018-11-07T10:05:12.830Z,29.00
2018-11-07T10:07:47.812Z,28.73
2018-11-07T10:10:24.991Z,29.67
2018-11-07T10:18:31.632Z,29.91
2018-11-07T10:21:07.754Z,30.14
2018-11-07T10:23:42.874Z,30.27
2018-11-07T10:26:17.701Z,29.95
2018-11-07T10:28:53.152Z,29.87
2018-11-07T10:31:28.040Z,29.48
2018-11-07T10:34:03.086Z,29.92
2018-11-07T10:36:39.141Z,29.76
2018-11-07T10:39:15.213Z,30.38
2018-11-07T10:41:50.890Z,30.64
2018-11-07T10:44:25.867Z,31.04
2018-11-07T10:47:00.071Z,30.10
2018-11-07T10:52:31.714Z,29.66
2018-11-07T10:55:07.119Z,29.48
2018-11-07T10:57:43.209Z,29.89
2018-11-07T11:00:37.614Z,30.20
2018-11-07T11:09:19.710Z,30.30
2018-11-07T11:11:54.239Z,30.33
2018-11-07T11:14:29.274Z,30.58
2018-11-07T11:19:39.704Z,30.72
2018-11-07T11:22:15.112Z,30.40
2018-11-07T11:24:50.986Z,30.29
2018-11-07T11:27:27.469Z,29.83
2018-11-07T11:30:02.723Z,29.74
2018-11-07T11:32:38.645Z,30.45
2018-11-07T11:35:14.163Z,31.02
2018-11-07T11:37:49.489Z,31.30
2018-11-07T11:40:24.187Z,31.38
2018-11-07T11:42:59.247Z,31.82
2018-11-07T11:45:33.946Z,31.72
2018-11-07T11:48:09.253Z,31.75
2018-11-07T11:53:35.541Z,31.42
2018-11-07T11:56:11.128Z,31.43
2018-11-07T12:01:33.318Z,32.38
2018-11-07T12:04:09.791Z,33.07
2018-11-07T12:06:45.414Z,33.09
2018-11-07T12:12:03.853Z,31.46
2018-11-07T12:14:39.965Z,31.13
2018-11-07T12:17:16.063Z,31.32
2018-11-07T12:19:53.008Z,30.96
2018-11-07T12:22:30.106Z,31.36
2018-11-07T12:25:05.435Z,31.61
2018-11-07T12:27:41.650Z,30.90
2018-11-07T12:33:08.066Z,29.04
2018-11-07T12:35:43.571Z,29.25
2018-11-07T12:38:19.247Z,28.54
2018-11-07T12:40:54.662Z,27.40
2018-11-07T12:43:30.572Z,27.19
2018-11-07T12:46:06.152Z,27.17
2018-11-07T12:48:44.091Z,26.88
2018-11-07T12:54:07.802Z,28.28
2018-11-07T12:56:42.703Z,29.09
2018-11-07T12:59:17.523Z,29.47
2018-11-07T13:01:52.374Z,29.22
2018-11-07T13:04:26.827Z,29.31
2018-11-07T13:07:02.084Z,28.76
2018-11-07T13:09:37.314Z,28.68
2018-11-07T13:12:12.962Z,28.51
2018-11-07T13:14:49.226Z,28.79
2018-11-07T13:20:07.515Z,26.60
2018-11-07T13:22:42.142Z,26.75
2018-11-07T13:28:01.108Z,27.35
2018-11-07T13:30:35.947Z,26.98
2018-11-07T13:33:11.393Z,26.34
2018-11-07T13:35:46.077Z,25.94
2018-11-07T13:38:21.016Z,25.16
2018-11-07T13:40:55.446Z,24.64
2018-11-07T13:43:30.570Z,24.95
2018-11-07T13:46:05.124Z,24.58
2018-11-07T13:48:42.585Z,24.68
2018-11-07T13:51:19.153Z,25.20
2018-11-07T13:56:35.462Z,25.59
2018-11-07T13:59:10.310Z,25.44
2018-11-07T14:01:45.789Z,25.09
2018-11-07T14:07:02.596Z,25.84
2018-11-07T14:12:20.179Z,26.12
2018-11-07T14:14:54.651Z,25.62
2018-11-07T14:17:32.023Z,25.03
2018-11-07T14:20:06.483Z,24.16
2018-11-07T14:22:42.046Z,23.55
2018-11-07T14:25:18.429Z,23.00
2018-11-07T14:27:54.076Z,22.56
2018-11-07T14:30:30.070Z,22.39
2018-11-07T14:33:05.595Z,22.23
2018-11-07T14:35:40.635Z,22.08
2018-11-07T14:38:16.148Z,21.97
2018-11-07T14:40:53.664Z,21.74
2018-11-07T14:43:28.778Z,21.39
2018-11-07T14:46:14.068Z,21.09
2018-11-07T14:49:03.064Z,20.66
2018-11-07T14:51:42.000Z,20.39
2018-11-07T14:54:16.685Z,20.22
2018-11-07T14:56:53.065Z,19.99
2018-11-07T14:59:28.769Z,19.94
2018-11-07T15:02:03.485Z,19.85
2018-11-07T15:04:39.757Z,19.62
2018-11-07T15:07:14.729Z,19.49
2018-11-07T15:09:51.543Z,19.23
2018-11-07T15:12:26.850Z,19.17
2018-11-07T15:15:03.886Z,18.97
2018-11-07T15:17:38.450Z,18.94
2018-11-07T15:23:00.589Z,18.65
2018-11-07T15:25:35.704Z,18.59
2018-11-07T15:28:09.939Z,18.50
2018-11-07T15:30:45.859Z,18.40
2018-11-07T15:33:24.179Z,18.40
2018-11-07T15:35:59.757Z,18.33
2018-11-07T15:38:35.190Z,18.30
2018-11-07T15:41:10.739Z,18.22
2018-11-07T15:43:45.415Z,18.27
2018-11-07T15:49:00.263Z,18.14
2018-11-07T15:51:40.551Z,18.05
2018-11-07T15:54:16.146Z,18.04
2018-11-07T15:56:50.639Z,17.94
2018-11-07T15:59:25.316Z,17.89
2018-11-07T16:01:59.658Z,17.76
2018-11-07T16:04:34.438Z,17.76
2018-11-07T16:07:10.188Z,17.78
2018-11-07T16:09:47.030Z,17.68
2018-11-07T16:12:22.191Z,17.60
2018-11-07T16:17:43.217Z,17.64
2018-11-07T16:20:20.655Z,17.69
2018-11-07T16:22:56.692Z,17.64
2018-11-07T16:25:32.586Z,17.67
2018-11-07T16:28:07.541Z,17.58
2018-11-07T16:30:42.532Z,17.52
2018-11-07T16:33:20.011Z,17.48
2018-11-07T16:35:56.598Z,17.47
2018-11-07T16:41:39.004Z,17.16
2018-11-07T16:44:14.089Z,17.10
2018-11-07T16:46:48.427Z,17.01
2018-11-07T16:49:22.689Z,16.97
2018-11-07T16:51:57.978Z,16.87
2018-11-07T16:54:33.747Z,16.58
2018-11-07T16:57:11.696Z,16.41
2018-11-07T16:59:46.526Z,16.30
2018-11-07T17:02:22.395Z,16.19
2018-11-07T17:04:57.181Z,16.20
2018-11-07T17:07:33.005Z,15.96
2018-11-07T17:10:10.574Z,15.87
2018-11-07T17:12:45.658Z,15.80
2018-11-07T17:18:04.400Z,15.81
2018-11-07T17:20:40.452Z,15.75
2018-11-07T17:23:18.530Z,15.66
2018-11-07T17:25:53.062Z,15.64
2018-11-07T17:28:27.933Z,15.76
2018-11-07T17:31:02.578Z,15.78
2018-11-07T17:33:37.597Z,15.71
2018-11-07T17:36:14.158Z,15.65
2018-11-07T17:38:50.491Z,15.73
2018-11-07T17:41:26.582Z,15.74
2018-11-07T17:44:02.052Z,15.70
2018-11-07T17:46:37.528Z,15.75
2018-11-07T17:49:12.144Z,15.87
2018-11-07T17:54:33.525Z,15.87
2018-11-07T17:57:09.940Z,15.82
2018-11-07T18:02:34.047Z,15.81
2018-11-07T18:05:12.721Z,15.79
2018-11-07T18:07:48.048Z,15.85
2018-11-07T18:10:26.146Z,15.86
2018-11-07T18:15:45.990Z,16.08
2018-11-07T18:18:24.726Z,16.05
2018-11-07T18:23:44.643Z,16.18
2018-11-07T18:26:19.953Z,16.19
2018-11-07T18:28:55.810Z,16.16
2018-11-07T18:31:31.525Z,16.17
2018-11-07T18:34:06.487Z,16.20
2018-11-07T18:36:44.148Z,16.39
2018-11-07T18:39:21.695Z,16.45
2018-11-07T18:41:57.095Z,16.32
2018-11-07T18:44:35.389Z,16.28
2018-11-07T18:47:09.645Z,16.21
2018-11-07T18:49:45.533Z,16.26
2018-11-07T18:52:21.173Z,16.37
2018-11-07T18:54:57.125Z,16.26
2018-11-07T18:57:31.232Z,16.22
2018-11-07T19:00:08.329Z,16.18
2018-11-07T19:05:27.870Z,16.18
2018-11-07T19:08:03.015Z,16.25
2018-11-07T19:10:38.354Z,16.19
2018-11-07T19:13:15.138Z,16.27
2018-11-07T19:15:50.858Z,16.22
2018-11-07T19:18:29.680Z,16.16
2018-11-07T19:23:44.878Z,16.22
2018-11-07T19:26:22.252Z,16.13
2018-11-07T19:28:57.198Z,16.04
2018-11-07T19:31:32.469Z,16.14
2018-11-07T19:34:07.758Z,16.03
2018-11-07T19:36:46.135Z,16.07
2018-11-07T19:39:24.553Z,16.01
2018-11-07T19:41:59.294Z,16.05
2018-11-07T19:44:35.933Z,16.05
2018-11-07T19:47:10.615Z,16.11
2018-11-07T19:49:45.958Z,15.98
2018-11-07T19:55:04.633Z,15.96
2018-11-07T19:57:40.190Z,15.88
2018-11-07T20:00:16.013Z,15.91
2018-11-07T20:02:50.726Z,15.86
2018-11-07T20:05:25.101Z,15.82
2018-11-07T20:08:00.083Z,15.69
2018-11-07T20:13:15.156Z,15.62
2018-11-07T20:15:49.991Z,15.70
2018-11-07T20:18:24.373Z,15.79
2018-11-07T20:21:00.305Z,15.79
2018-11-07T20:23:38.798Z,15.80
2018-11-07T20:26:12.757Z,15.82
2018-11-07T20:28:49.939Z,15.80
2018-11-07T20:31:25.150Z,15.70
2018-11-07T20:33:59.573Z,15.67
2018-11-07T20:36:34.057Z,15.72
2018-11-07T20:39:12.438Z,15.65
2018-11-07T20:41:48.034Z,15.68
2018-11-07T20:44:23.104Z,15.77
2018-11-07T20:46:58.175Z,15.67
2018-11-07T20:49:32.644Z,15.73
2018-11-07T20:52:07.642Z,15.81
2018-11-07T20:57:50.395Z,15.81
2018-11-07T21:00:25.004Z,15.90
2018-11-07T21:02:59.824Z,15.85
2018-11-07T21:05:36.407Z,15.82
2018-11-07T21:08:13.562Z,15.79
2018-11-07T21:10:48.936Z,15.67
2018-11-07T21:13:24.011Z,15.73
2018-11-07T21:15:59.396Z,15.70
2018-11-07T21:21:17.913Z,15.78
2018-11-07T21:23:53.835Z,15.70
2018-11-07T21:26:28.687Z,15.72
2018-11-07T21:29:03.474Z,15.75
2018-11-07T21:31:40.498Z,15.75
2018-11-07T21:34:16.107Z,15.68
2018-11-07T21:36:53.737Z,15.64
2018-11-07T21:39:29.615Z,15.59
2018-11-07T21:42:05.238Z,15.60
2018-11-07T21:44:41.598Z,15.69
2018-11-07T21:47:16.286Z,15.64
2018-11-07T21:49:52.356Z,15.59
2018-11-07T21:57:56.577Z,15.60
2018-11-07T22:00:31.238Z,15.62
2018-11-07T22:03:07.673Z,15.57
2018-11-07T22:05:42.944Z,15.47
2018-11-07T22:11:13.365Z,15.49
2018-11-07T22:13:48.443Z,15.56
2018-11-07T22:16:23.356Z,15.47
2018-11-07T22:18:58.620Z,15.47
2018-11-07T22:21:39.247Z,15.42
2018-11-07T22:24:15.590Z,15.46
2018-11-07T22:26:51.603Z,15.36
2018-11-07T22:32:11.800Z,15.42
2018-11-07T22:34:46.929Z,15.40
2018-11-07T22:37:21.895Z,15.39
2018-11-07T22:39:57.734Z,15.34
2018-11-07T22:42:35.801Z,15.32
2018-11-07T22:45:12.207Z,15.31
2018-11-07T22:47:47.639Z,15.35
2018-11-07T22:50:22.448Z,15.36
2018-11-07T22:52:57.163Z,15.39
2018-11-07T22:55:33.648Z,15.32
2018-11-07T22:58:08.825Z,15.39
2018-11-07T23:01:01.949Z,15.37
2018-11-07T23:03:37.829Z,15.34
2018-11-07T23:06:12.027Z,15.34
2018-11-07T23:11:29.890Z,15.42
2018-11-07T23:14:05.755Z,15.39
2018-11-07T23:16:40.835Z,15.37
2018-11-07T23:19:17.356Z,15.40
2018-11-07T23:21:55.347Z,15.34
2018-11-07T23:24:30.136Z,15.28
2018-11-07T23:27:05.823Z,15.24
2018-11-07T23:29:42.365Z,15.21
2018-11-07T23:32:17.141Z,15.18
2018-11-07T23:34:52.183Z,15.11
2018-11-07T23:40:10.986Z,15.18
2018-11-07T23:42:46.901Z,15.24
2018-11-07T23:45:21.876Z,15.17
2018-11-07T23:47:58.055Z,15.18
2018-11-07T23:50:32.641Z,15.20
2018-11-07T23:53:08.706Z,15.12
2018-11-07T23:55:43.312Z,15.05
2018-11-07T23:58:18.020Z,15.00
